createdAt,value
2019-03-04T00:00:18.016Z,3.27
2019-03-04T00:03:03.539Z,3.10
2019-03-04T00:05:34.295Z,3.10
2019-03-04T00:08:05.055Z,2.97
2019-03-04T00:10:35.773Z,2.60
2019-03-04T00:13:06.506Z,3.00
2019-03-04T00:15:45.061Z,2.90
2019-03-04T00:18:15.877Z,2.80
2019-03-04T00:20:47.579Z,2.80
2019-03-04T00:23:19.270Z,2.93
2019-03-04T00:25:51.809Z,2.90
2019-03-04T00:28:22.370Z,2.37
2019-03-04T00:31:11.004Z,2.47
2019-03-04T00:33:59.650Z,3.00
2019-03-04T00:36:30.407Z,2.37
2019-03-04T00:39:09.172Z,2.80
2019-03-04T00:41:52.334Z,2.53
2019-03-04T00:44:32.137Z,2.60
2019-03-04T00:47:02.800Z,2.53
2019-03-04T00:49:33.450Z,2.57
2019-03-04T00:52:08.655Z,2.23
2019-03-04T00:54:39.264Z,2.83
2019-03-04T00:57:20.984Z,2.60
2019-03-04T00:59:51.578Z,2.27
2019-03-04T01:02:23.228Z,2.60
2019-03-04T01:04:57.716Z,2.50
2019-03-04T01:07:41.239Z,2.43
2019-03-04T01:10:12.660Z,2.33
2019-03-04T01:12:43.369Z,2.50
2019-03-04T01:15:22.390Z,2.07
2019-03-04T01:17:52.850Z,2.17
2019-03-04T01:20:27.090Z,2.60
2019-03-04T01:22:57.803Z,2.20
2019-03-04T01:25:30.379Z,2.13
2019-03-04T01:28:01.093Z,2.03
2019-03-04T01:30:32.800Z,2.20
2019-03-04T01:33:09.248Z,1.90
2019-03-04T01:35:39.978Z,1.73
2019-03-04T01:38:11.634Z,1.97
2019-03-04T01:40:42.298Z,2.00
2019-03-04T01:43:13.925Z,1.90
2019-03-04T01:45:44.559Z,2.23
2019-03-04T01:48:15.158Z,1.93
2019-03-04T01:50:53.503Z,2.10
2019-03-04T01:53:24.132Z,1.50
2019-03-04T01:56:01.392Z,1.50
2019-03-04T01:58:32.112Z,1.40
2019-03-04T02:01:08.515Z,1.23
2019-03-04T02:03:39.186Z,1.20
2019-03-04T02:06:09.853Z,1.57
2019-03-04T02:08:41.607Z,1.43
2019-03-04T02:11:12.415Z,1.30
2019-03-04T02:13:43.043Z,1.97
2019-03-04T02:16:13.750Z,1.37
2019-03-04T02:18:45.406Z,1.70
2019-03-04T02:21:16.029Z,1.40
2019-03-04T02:23:46.677Z,1.37
2019-03-04T02:26:23.610Z,1.70
2019-03-04T02:28:54.212Z,1.20
2019-03-04T02:31:24.871Z,1.30
2019-03-04T02:33:55.452Z,1.10
2019-03-04T02:36:26.106Z,1.33
2019-03-04T02:38:56.678Z,1.30
2019-03-04T02:41:27.322Z,1.00
2019-03-04T02:43:57.945Z,1.07
2019-03-04T02:46:30.530Z,1.20
2019-03-04T02:49:01.156Z,1.00
2019-03-04T02:51:35.073Z,1.10
2019-03-04T02:54:05.896Z,1.10
2019-03-04T02:56:44.555Z,1.00
2019-03-04T02:59:15.056Z,1.00
2019-03-04T03:01:45.675Z,1.00
2019-03-04T03:04:16.247Z,1.23
2019-03-04T03:06:49.177Z,1.10
2019-03-04T03:09:19.769Z,1.00
2019-03-04T03:11:50.298Z,1.13
2019-03-04T03:14:20.987Z,1.00
2019-03-04T03:16:51.644Z,1.10
2019-03-04T03:19:22.276Z,1.20
2019-03-04T03:21:53.014Z,1.17
2019-03-04T03:24:23.629Z,1.10
2019-03-04T03:26:54.260Z,1.13
2019-03-04T03:29:25.012Z,1.10
2019-03-04T03:31:55.582Z,1.20
2019-03-04T03:34:26.274Z,1.33
2019-03-04T03:36:56.806Z,1.63
2019-03-04T03:39:27.504Z,1.40
2019-03-04T03:42:02.567Z,1.70
2019-03-04T03:44:33.274Z,1.93
2019-03-04T03:47:07.401Z,2.17
2019-03-04T03:49:39.063Z,1.83
2019-03-04T03:52:09.732Z,1.77
2019-03-04T03:54:42.377Z,1.73
2019-03-04T03:57:24.581Z,1.97
2019-03-04T03:59:55.306Z,1.80
2019-03-04T04:02:25.941Z,2.17
2019-03-04T04:04:56.537Z,2.20
2019-03-04T04:07:33.322Z,2.27
2019-03-04T04:10:10.851Z,2.13
2019-03-04T04:12:41.556Z,2.37
2019-03-04T04:15:14.956Z,2.27
2019-03-04T04:17:49.600Z,3.00
2019-03-04T04:20:20.289Z,2.00
2019-03-04T04:22:50.870Z,3.00
2019-03-04T04:25:33.550Z,2.87
2019-03-04T04:28:11.374Z,2.40
2019-03-04T04:30:41.994Z,1.83
2019-03-04T04:33:12.552Z,1.83
2019-03-04T04:35:43.192Z,1.93
2019-03-04T04:38:19.360Z,1.57
2019-03-04T04:41:08.601Z,1.43
2019-03-04T04:43:39.325Z,1.43
2019-03-04T04:46:10.048Z,1.00
2019-03-04T04:48:42.897Z,1.20
2019-03-04T04:51:14.578Z,1.10
2019-03-04T04:53:45.254Z,1.00
2019-03-04T04:56:16.495Z,1.10
2019-03-04T04:58:47.225Z,1.20
2019-03-04T05:01:17.852Z,1.37
2019-03-04T05:03:48.583Z,1.20
2019-03-04T05:06:19.217Z,0.70
2019-03-04T05:08:53.903Z,0.93
2019-03-04T05:11:25.608Z,1.00
2019-03-04T05:13:56.224Z,1.10
2019-03-04T05:16:26.888Z,0.80
2019-03-04T05:18:57.450Z,1.10
2019-03-04T05:21:32.452Z,1.03
2019-03-04T05:24:03.125Z,0.90
2019-03-04T05:26:33.795Z,1.10
2019-03-04T05:29:04.412Z,1.10
2019-03-04T05:31:35.141Z,0.90
2019-03-04T05:34:05.786Z,0.93
2019-03-04T05:36:36.404Z,1.10
2019-03-04T05:39:07.752Z,0.77
2019-03-04T05:41:45.284Z,0.80
2019-03-04T05:44:34.584Z,0.90
2019-03-04T05:47:06.196Z,1.20
2019-03-04T05:49:36.859Z,1.00
2019-03-04T05:52:07.596Z,0.83
2019-03-04T05:54:40.476Z,1.20
2019-03-04T05:57:11.494Z,1.20
2019-03-04T05:59:42.204Z,0.90
2019-03-04T06:02:12.913Z,1.40
2019-03-04T06:04:45.722Z,1.00
2019-03-04T06:07:17.967Z,0.73
2019-03-04T06:09:49.455Z,0.77
2019-03-04T06:12:20.098Z,0.93
2019-03-04T06:14:50.793Z,0.47
2019-03-04T06:17:23.410Z,0.40
2019-03-04T06:19:54.007Z,0.60
2019-03-04T06:22:24.709Z,0.53
2019-03-04T06:24:55.303Z,0.80
2019-03-04T06:27:25.959Z,0.40
2019-03-04T06:29:57.562Z,0.50
2019-03-04T06:32:30.500Z,0.63
2019-03-04T06:35:01.087Z,0.80
2019-03-04T06:37:31.723Z,1.37
2019-03-04T06:40:10.440Z,1.20
2019-03-04T06:42:41.149Z,0.90
2019-03-04T06:45:13.558Z,0.90
2019-03-04T06:47:44.261Z,0.70
2019-03-04T06:50:53.215Z,1.37
2019-03-04T06:53:48.484Z,0.80
2019-03-04T06:56:29.498Z,0.83
2019-03-04T06:59:08.279Z,1.10
2019-03-04T07:01:48.484Z,1.27
2019-03-04T07:04:34.207Z,1.10
2019-03-04T07:07:05.383Z,1.30
2019-03-04T07:09:48.085Z,1.60
2019-03-04T07:12:19.779Z,1.93
2019-03-04T07:15:06.175Z,2.47
2019-03-04T07:17:37.838Z,2.17
2019-03-04T07:20:11.241Z,2.10
2019-03-04T07:22:41.822Z,2.50
2019-03-04T07:25:18.985Z,2.30
2019-03-04T07:28:05.744Z,1.50
2019-03-04T07:30:37.526Z,1.57
2019-03-04T07:33:08.211Z,1.80
2019-03-04T07:35:45.332Z,2.33
2019-03-04T07:38:53.172Z,1.60
2019-03-04T07:41:23.887Z,1.70
2019-03-04T07:43:54.581Z,0.80
2019-03-04T07:46:25.250Z,1.10
2019-03-04T07:48:56.965Z,0.80
2019-03-04T07:51:53.858Z,0.80
2019-03-04T07:54:24.480Z,1.10
2019-03-04T07:56:55.147Z,1.00
2019-03-04T07:59:25.836Z,1.00
2019-03-04T08:01:56.526Z,1.00
2019-03-04T08:04:32.046Z,1.20
2019-03-04T08:07:35.394Z,0.90
2019-03-04T08:10:58.372Z,1.10
2019-03-04T08:13:41.547Z,1.10
2019-03-04T08:16:16.318Z,1.33
2019-03-04T08:18:47.015Z,1.03
2019-03-04T08:21:27.337Z,1.00
2019-03-04T08:23:57.968Z,1.00
2019-03-04T08:26:28.593Z,1.07
2019-03-04T08:28:59.300Z,1.20
2019-03-04T08:31:30.018Z,0.80
2019-03-04T08:34:17.968Z,1.03
2019-03-04T08:36:48.636Z,1.00
2019-03-04T08:39:19.264Z,0.90
2019-03-04T08:41:49.823Z,1.20
2019-03-04T08:44:21.528Z,1.33
2019-03-04T08:46:52.264Z,1.57
2019-03-04T08:49:22.846Z,1.20
2019-03-04T08:51:53.425Z,1.70
2019-03-04T08:54:24.071Z,1.17
2019-03-04T08:57:03.615Z,1.40
2019-03-04T08:59:27.093Z,1.77
2019-03-04T09:01:57.794Z,1.60
2019-03-04T09:04:34.903Z,1.90
2019-03-04T09:07:05.637Z,2.60
2019-03-04T09:09:36.396Z,2.20
2019-03-04T09:12:07.016Z,2.27
2019-03-04T09:14:37.685Z,2.50
2019-03-04T09:17:13.450Z,4.80
2019-03-04T09:19:49.787Z,1.97
2019-03-04T09:22:20.572Z,1.70
2019-03-04T09:24:51.305Z,2.50
2019-03-04T09:27:27.881Z,1.80
2019-03-04T09:29:58.559Z,2.10
2019-03-04T09:32:30.143Z,1.73
2019-03-04T09:35:00.833Z,1.90
2019-03-04T09:37:31.509Z,1.07
2019-03-04T09:40:12.732Z,1.50
2019-03-04T09:42:43.488Z,1.30
2019-03-04T09:45:14.438Z,1.30
2019-03-04T09:47:48.463Z,1.80
2019-03-04T09:50:21.364Z,1.80
2019-03-04T09:52:52.528Z,1.10
2019-03-04T09:55:35.137Z,1.60
2019-03-04T09:58:05.756Z,1.50
2019-03-04T10:01:16.605Z,1.63
2019-03-04T10:04:15.165Z,1.50
2019-03-04T10:07:19.067Z,1.13
2019-03-04T10:10:37.017Z,1.50
2019-03-04T10:14:09.895Z,1.90
2019-03-04T10:17:08.163Z,2.43
2019-03-04T10:19:48.898Z,2.40
2019-03-04T10:22:40.054Z,2.97
2019-03-04T10:25:35.740Z,2.47
2019-03-04T10:28:27.011Z,2.70
2019-03-04T10:31:23.223Z,2.40
2019-03-04T10:34:32.010Z,2.13
2019-03-04T10:37:46.540Z,2.03
2019-03-04T10:41:13.156Z,2.07
2019-03-04T10:44:37.923Z,1.20
2019-03-04T10:47:16.047Z,1.23
2019-03-04T10:49:54.677Z,1.97
2019-03-04T10:52:25.302Z,1.47
2019-03-04T10:54:55.924Z,1.70
2019-03-04T10:57:42.784Z,1.80
2019-03-04T11:00:16.139Z,2.20
2019-03-04T11:02:46.751Z,2.63
2019-03-04T11:05:33.056Z,1.30
2019-03-04T11:08:04.741Z,0.97
2019-03-04T11:10:36.373Z,0.80
2019-03-04T11:13:09.041Z,1.17
2019-03-04T11:15:39.669Z,0.60
2019-03-04T11:18:16.483Z,0.80
2019-03-04T11:20:47.200Z,0.70
2019-03-04T11:23:17.950Z,0.53
2019-03-04T11:25:56.332Z,0.70
2019-03-04T11:28:27.113Z,0.80
2019-03-04T11:30:57.753Z,0.73
2019-03-04T11:33:40.622Z,0.73
2019-03-04T11:36:16.546Z,1.20
2019-03-04T11:38:55.411Z,1.30
2019-03-04T11:41:26.070Z,1.23
2019-03-04T11:43:56.751Z,0.90
2019-03-04T11:46:29.484Z,1.30
2019-03-04T11:49:00.175Z,1.30
2019-03-04T11:51:30.901Z,0.83
2019-03-04T11:54:03.624Z,0.83
2019-03-04T11:56:34.257Z,0.70
2019-03-04T11:59:05.144Z,0.80
2019-03-04T12:01:37.461Z,0.80
2019-03-04T12:04:08.054Z,1.00
2019-03-04T12:06:44.658Z,1.80
2019-03-04T12:09:16.045Z,1.60
2019-03-04T12:11:46.751Z,1.10
2019-03-04T12:14:18.369Z,1.20
2019-03-04T12:16:49.112Z,1.67
2019-03-04T12:19:28.763Z,1.67
2019-03-04T12:22:00.945Z,1.90
2019-03-04T12:24:31.753Z,1.47
2019-03-04T12:27:02.535Z,1.40
2019-03-04T12:29:39.139Z,1.40
2019-03-04T12:32:17.985Z,1.60
2019-03-04T12:34:48.723Z,1.37
2019-03-04T12:37:30.352Z,1.50
2019-03-04T12:40:25.079Z,1.83
2019-03-04T12:42:58.964Z,1.27
2019-03-04T12:45:34.468Z,1.70
2019-03-04T12:48:03.077Z,1.70
2019-03-04T12:50:33.864Z,1.80
2019-03-04T12:53:04.650Z,2.00
2019-03-04T12:55:35.284Z,2.30
2019-03-04T12:58:05.955Z,2.00
2019-03-04T13:00:51.751Z,1.90
2019-03-04T13:03:28.287Z,2.20
2019-03-04T13:06:01.036Z,2.40
2019-03-04T13:08:31.695Z,2.50
2019-03-04T13:11:02.392Z,2.40
2019-03-04T13:13:32.957Z,2.57
2019-03-04T13:16:03.810Z,2.40
2019-03-04T13:18:34.707Z,2.60
2019-03-04T13:21:05.414Z,2.80
2019-03-04T13:23:38.105Z,2.70
2019-03-04T13:26:09.820Z,2.97
2019-03-04T13:28:51.385Z,2.80
2019-03-04T13:31:24.081Z,3.03
2019-03-04T13:33:54.783Z,3.00
2019-03-04T13:36:25.472Z,3.43
2019-03-04T13:38:57.068Z,9.07
2019-03-04T13:41:27.712Z,4.13
2019-03-04T13:43:58.328Z,4.00
2019-03-04T13:46:29.096Z,4.13
2019-03-04T13:48:59.671Z,3.73
2019-03-04T13:51:30.508Z,3.97
2019-03-04T13:54:02.216Z,4.50
2019-03-04T13:56:33.948Z,4.13
2019-03-04T13:59:04.668Z,3.90
2019-03-04T14:01:44.870Z,3.67
2019-03-04T14:04:33.800Z,3.47
2019-03-04T14:07:22.506Z,3.40
2019-03-04T14:09:55.231Z,3.17
2019-03-04T14:12:26.191Z,2.60
2019-03-04T14:14:56.776Z,2.53
2019-03-04T14:17:29.568Z,2.80
2019-03-04T14:20:00.276Z,2.67
2019-03-04T14:22:57.299Z,2.90
2019-03-04T14:25:26.299Z,2.63
2019-03-04T14:27:58.130Z,2.70
2019-03-04T14:30:28.781Z,3.20
2019-03-04T14:32:59.474Z,2.50
2019-03-04T14:35:31.124Z,2.20
2019-03-04T14:38:01.886Z,2.30
2019-03-04T14:40:32.605Z,1.90
2019-03-04T14:43:03.338Z,1.37
2019-03-04T14:45:37.922Z,1.90
2019-03-04T14:48:09.642Z,1.83
2019-03-04T14:50:42.398Z,1.20
2019-03-04T14:53:13.038Z,1.40
2019-03-04T14:55:51.249Z,1.70
2019-03-04T14:58:21.970Z,1.60
2019-03-04T15:00:54.666Z,1.30
2019-03-04T15:03:39.748Z,1.73
2019-03-04T15:06:10.459Z,1.80
2019-03-04T15:08:45.373Z,1.40
2019-03-04T15:11:16.956Z,1.50
2019-03-04T15:13:47.588Z,1.50
2019-03-04T15:16:18.424Z,1.30
2019-03-04T15:18:49.350Z,1.30
2019-03-04T15:21:35.605Z,1.43
2019-03-04T15:24:06.343Z,1.70
2019-03-04T15:26:45.998Z,1.57
2019-03-04T15:29:16.667Z,1.60
2019-03-04T15:31:47.362Z,2.00
2019-03-04T15:34:28.636Z,1.80
2019-03-04T15:36:59.288Z,1.60
2019-03-04T15:39:32.016Z,1.70
2019-03-04T15:42:15.797Z,1.70
2019-03-04T15:45:00.684Z,1.93
2019-03-04T15:47:31.453Z,2.17
2019-03-04T15:50:02.157Z,2.20
2019-03-04T15:52:36.484Z,1.67
2019-03-04T15:55:14.173Z,1.63
2019-03-04T15:57:46.039Z,2.00
2019-03-04T16:00:17.270Z,2.20
2019-03-04T16:02:54.575Z,2.30
2019-03-04T16:05:26.339Z,1.60
2019-03-04T16:08:06.778Z,1.57
2019-03-04T16:10:38.370Z,1.50
2019-03-04T16:13:09.142Z,1.40
2019-03-04T16:15:41.147Z,1.20
2019-03-04T16:18:11.944Z,1.60
2019-03-04T16:20:42.780Z,1.17
2019-03-04T16:23:13.598Z,1.20
2019-03-04T16:25:47.606Z,1.30
2019-03-04T16:28:20.890Z,1.60
2019-03-04T16:30:51.875Z,1.37
2019-03-04T16:33:27.590Z,1.10
2019-03-04T16:35:58.317Z,1.20
2019-03-04T16:38:29.003Z,1.53
2019-03-04T16:41:01.004Z,1.40
2019-03-04T16:43:31.600Z,1.30
2019-03-04T16:46:11.556Z,1.40
2019-03-04T16:48:44.258Z,1.13
2019-03-04T16:51:15.890Z,1.63
2019-03-04T16:53:46.609Z,1.80
2019-03-04T16:56:17.560Z,1.37
2019-03-04T16:58:53.425Z,1.30
2019-03-04T17:01:27.317Z,1.40
2019-03-04T17:03:58.003Z,1.63
2019-03-04T17:06:28.707Z,1.87
2019-03-04T17:08:59.337Z,1.93
2019-03-04T17:11:30.998Z,1.67
2019-03-04T17:14:01.731Z,1.80
2019-03-04T17:16:50.846Z,2.07
2019-03-04T17:19:21.518Z,1.87
2019-03-04T17:22:02.258Z,1.60
2019-03-04T17:24:38.319Z,1.63
2019-03-04T17:27:12.573Z,1.80
2019-03-04T17:29:43.195Z,1.80
2019-03-04T17:32:14.993Z,1.63
2019-03-04T17:34:51.826Z,1.93
2019-03-04T17:37:23.538Z,1.70
2019-03-04T17:40:01.571Z,1.63
2019-03-04T17:42:47.026Z,2.17
2019-03-04T17:45:29.319Z,1.40
2019-03-04T17:48:06.354Z,1.63
2019-03-04T17:50:37.338Z,1.47
2019-03-04T17:53:08.273Z,1.73
2019-03-04T17:55:43.269Z,1.47
2019-03-04T17:58:14.235Z,1.40
2019-03-04T18:00:55.703Z,1.40
2019-03-04T18:03:32.362Z,1.63
2019-03-04T18:06:06.121Z,1.30
2019-03-04T18:08:38.792Z,1.30
2019-03-04T18:11:09.397Z,1.43
2019-03-04T18:13:40.183Z,1.63
2019-03-04T18:16:14.192Z,1.80
2019-03-04T18:18:44.873Z,1.67
2019-03-04T18:21:19.323Z,1.90
2019-03-04T18:23:50.078Z,2.50
2019-03-04T18:26:37.710Z,1.50
2019-03-04T18:29:27.161Z,1.53
2019-03-04T18:32:19.128Z,1.60
2019-03-04T18:35:13.384Z,2.30
2019-03-04T18:38:10.969Z,1.50
2019-03-04T18:40:53.632Z,1.80
2019-03-04T18:44:16.333Z,1.70
2019-03-04T18:47:26.467Z,1.40
2019-03-04T18:49:57.268Z,1.70
2019-03-04T18:52:31.973Z,1.67
2019-03-04T18:55:03.670Z,1.47
2019-03-04T18:57:37.414Z,1.70
2019-03-04T19:00:13.279Z,1.50
2019-03-04T19:02:44.514Z,2.50
2019-03-04T19:05:16.485Z,2.10
2019-03-04T19:07:53.480Z,2.53
2019-03-04T19:10:34.360Z,1.93
2019-03-04T19:13:06.135Z,2.17
2019-03-04T19:15:37.859Z,2.93
2019-03-04T19:18:08.726Z,2.43
2019-03-04T19:20:39.478Z,2.80
2019-03-04T19:23:23.733Z,2.80
2019-03-04T19:26:01.652Z,2.67
2019-03-04T19:28:41.562Z,2.20
2019-03-04T19:31:13.209Z,2.73
2019-03-04T19:33:53.574Z,2.80
2019-03-04T19:36:25.830Z,2.63
2019-03-04T19:38:59.205Z,2.90
2019-03-04T19:41:30.030Z,3.30
2019-03-04T19:44:00.822Z,2.80
2019-03-04T19:46:31.958Z,2.63
2019-03-04T19:49:02.747Z,2.53
2019-03-04T19:51:35.374Z,2.80
2019-03-04T19:54:06.405Z,3.70
2019-03-04T19:56:40.595Z,3.83
2019-03-04T19:59:11.421Z,3.00
2019-03-04T20:01:44.244Z,2.70
2019-03-04T20:04:19.516Z,3.03
2019-03-04T20:06:51.345Z,2.93
2019-03-04T20:09:22.004Z,2.60
2019-03-04T20:11:58.048Z,2.60
2019-03-04T20:14:33.339Z,1.67
2019-03-04T20:17:04.367Z,2.23
2019-03-04T20:19:37.441Z,1.80
2019-03-04T20:22:26.126Z,2.47
2019-03-04T20:24:57.004Z,2.00
2019-03-04T20:27:27.865Z,2.17
2019-03-04T20:29:58.633Z,2.07
2019-03-04T20:32:31.657Z,2.10
2019-03-04T20:35:02.315Z,2.10
2019-03-04T20:37:33.783Z,2.40
2019-03-04T20:40:04.959Z,1.90
2019-03-04T20:42:36.269Z,2.40
2019-03-04T20:45:08.772Z,2.00
2019-03-04T20:47:43.123Z,2.40
2019-03-04T20:50:17.371Z,2.20
2019-03-04T20:52:54.665Z,2.07
2019-03-04T20:55:27.574Z,2.40
2019-03-04T20:57:58.458Z,3.43
2019-03-04T21:00:36.018Z,3.20
2019-03-04T21:03:10.501Z,3.50
2019-03-04T21:05:41.611Z,2.40
2019-03-04T21:08:24.113Z,2.63
2019-03-04T21:10:55.257Z,2.60
2019-03-04T21:13:36.131Z,1.97
2019-03-04T21:16:07.179Z,2.00
2019-03-04T21:18:37.993Z,2.10
2019-03-04T21:21:12.553Z,1.70
2019-03-04T21:23:43.232Z,1.30
2019-03-04T21:26:22.787Z,1.47
2019-03-04T21:29:31.566Z,0.80
2019-03-04T21:32:31.700Z,1.00
2019-03-04T21:35:31.492Z,0.70
2019-03-04T21:38:02.451Z,1.10
2019-03-04T21:40:44.399Z,1.07
2019-03-04T21:43:26.355Z,0.87
2019-03-04T21:46:37.173Z,1.00
2019-03-04T21:49:10.224Z,1.67
2019-03-04T21:52:20.196Z,1.37
2019-03-04T21:54:49.338Z,1.97
2019-03-04T21:57:39.214Z,1.70
2019-03-04T22:00:33.520Z,1.60
2019-03-04T22:03:18.088Z,1.80
2019-03-04T22:05:52.996Z,2.00
2019-03-04T22:08:52.096Z,1.70
2019-03-04T22:11:22.909Z,1.90
2019-03-04T22:13:54.597Z,2.33
2019-03-04T22:16:28.611Z,2.30
2019-03-04T22:19:06.409Z,2.40
2019-03-04T22:21:40.934Z,2.30
2019-03-04T22:24:11.654Z,2.10
2019-03-04T22:26:42.652Z,2.40
2019-03-04T22:29:23.642Z,2.30
2019-03-04T22:32:00.529Z,2.40
2019-03-04T22:34:52.025Z,2.37
2019-03-04T22:37:22.686Z,2.23
2019-03-04T22:40:07.519Z,2.00
2019-03-04T22:42:38.261Z,2.27
2019-03-04T22:45:12.099Z,2.00
2019-03-04T22:47:43.081Z,1.93
2019-03-04T22:50:33.959Z,2.10
2019-03-04T22:53:06.824Z,1.97
2019-03-04T22:55:50.916Z,2.47
2019-03-04T22:58:28.882Z,2.67
2019-03-04T23:01:35.754Z,2.23
2019-03-04T23:04:20.931Z,2.50
2019-03-04T23:07:01.394Z,2.67
2019-03-04T23:10:10.258Z,2.80
2019-03-04T23:13:02.719Z,2.37
2019-03-04T23:15:35.748Z,2.50
2019-03-04T23:18:21.018Z,2.83
2019-03-04T23:21:18.034Z,2.73
2019-03-04T23:23:48.776Z,2.30
2019-03-04T23:26:20.682Z,2.70
2019-03-04T23:28:51.486Z,2.43
2019-03-04T23:31:23.170Z,2.77
2019-03-04T23:33:53.893Z,2.40
2019-03-04T23:36:26.455Z,2.60
2019-03-04T23:38:58.044Z,2.83
2019-03-04T23:41:28.689Z,2.50
2019-03-04T23:43:59.268Z,2.90
2019-03-04T23:46:35.494Z,2.50
2019-03-04T23:49:06.087Z,2.37
2019-03-04T23:51:37.778Z,2.57
2019-03-04T23:54:08.391Z,2.53
2019-03-04T23:56:39.225Z,2.17
2019-03-04T23:59:09.761Z,2.23
